Time;durP1;ratioP1;P1;durP2;ratioP2;P2;SDS_P1;SDS_P2;PMS_P1;PMS_P2;Temp;Humidity;BMP_temperature;BMP_pressure;BME280_temperature;BME280_humidity;BME280_pressure;Samples;Min_cycle;Max_cycle;Signal;HPM_P1;HPM_P2
2022/08/16 00:01:00;;;;;;;10.57;4.95;;;;;;;-145.69;100.00;70729.88;5089191;28;20202;-75
2022/08/16 00:03:27;;;;;;;7.55;4.38;;;;;;;-145.69;100.00;70650.28;5098040;28;20190;-75
2022/08/16 00:05:53;;;;;;;6.55;4.13;;;;;;;-145.69;100.00;70630.41;5114022;28;20637;-76
2022/08/16 00:08:20;;;;;;;5.35;3.30;;;;;;;-145.69;100.00;70650.28;5114173;28;20205;-75
2022/08/16 00:10:46;;;;;;;9.80;4.22;;;;;;;-145.69;100.00;70636.38;5113349;28;20221;-75
2022/08/16 00:13:13;;;;;;;8.15;3.42;;;;;;;-145.69;100.00;70626.41;5114043;28;20204;-74
2022/08/16 00:15:42;;;;;;;6.43;4.40;;;;;;;-145.69;100.00;70626.41;5114069;28;20267;-75
2022/08/16 00:18:10;;;;;;;9.73;3.75;;;;;;;-145.69;100.00;70590.63;5100691;28;20225;-75
2022/08/16 00:20:38;;;;;;;5.53;3.58;;;;;;;-145.69;100.00;70608.53;5093374;28;20205;-75
2022/08/16 00:23:05;;;;;;;6.22;3.33;;;;;;;-145.69;100.00;70612.50;5093292;28;20607;-75
2022/08/16 00:25:33;;;;;;;9.88;4.30;;;;;;;-145.69;100.00;70618.47;5093561;28;20202;-75
2022/08/16 00:27:59;;;;;;;5.13;3.60;;;;;;;-145.69;100.00;70620.44;5093326;28;20213;-75
2022/08/16 00:30:25;;;;;;;7.43;3.75;;;;;;;-145.69;100.00;70620.44;5093265;28;20198;-76
2022/08/16 00:32:55;;;;;;;5.13;3.55;;;;;;;-145.69;100.00;70622.44;5112684;28;20251;-75
2022/08/16 00:35:26;;;;;;;5.20;3.60;;;;;;;-145.69;100.00;70634.38;5113676;28;20204;-75
2022/08/16 00:37:54;;;;;;;4.65;3.58;;;;;;;-145.69;100.00;70614.47;5113687;28;20217;-76
2022/08/16 00:40:24;;;;;;;11.13;4.00;;;;;;;-145.69;100.00;70610.50;5113819;28;20255;-75
2022/08/16 00:42:51;;;;;;;5.88;3.72;;;;;;;-145.69;100.00;70616.47;5113628;28;20224;-75
2022/08/16 00:45:28;;;;;;;7.70;3.58;;;;;;;-145.69;100.00;70616.47;5107956;28;20194;-75
2022/08/16 00:47:55;;;;;;;5.43;3.67;;;;;;;-145.69;100.00;70620.44;5093045;28;20227;-75
2022/08/16 00:50:26;;;;;;;6.15;3.40;;;;;;;-145.69;100.00;70630.41;5092834;28;20207;-76
2022/08/16 00:52:53;;;;;;;9.27;4.03;;;;;;;-145.69;100.00;70644.31;5093295;28;20202;-76
2022/08/16 00:55:21;;;;;;;5.47;3.50;;;;;;;-145.69;100.00;70668.19;5092794;28;20668;-76
2022/08/16 00:57:51;;;;;;;8.38;3.90;;;;;;;-145.69;100.00;70672.19;5092537;28;20226;-75
2022/08/16 01:00:17;;;;;;;13.10;4.07;;;;;;;-145.69;100.00;70672.19;5108177;28;20209;-75
2022/08/16 01:02:45;;;;;;;7.18;4.15;;;;;;;-145.69;100.00;70692.06;5117252;28;20267;-75
2022/08/16 01:05:11;;;;;;;5.25;3.63;;;;;;;-145.69;100.00;70706.00;5117451;28;20224;-76
2022/08/16 01:07:42;;;;;;;5.95;4.40;;;;;;;-145.69;100.00;70725.91;5117680;28;20208;-75
2022/08/16 01:10:08;;;;;;;7.22;4.45;;;;;;;-145.69;100.00;70727.88;5117527;28;20204;-75
2022/08/16 01:12:35;;;;;;;7.25;4.60;;;;;;;-145.69;100.00;70692.06;5117522;27;20224;-75
2022/08/16 01:15:03;;;;;;;6.53;4.53;;;;;;;-145.69;100.00;70711.97;5097315;28;20599;-76
2022/08/16 01:17:31;;;;;;;7.57;4.68;;;;;;;-145.69;100.00;70741.81;5098059;28;20222;-75
2022/08/16 01:23:29;;;;;;;11.40;4.30;;;;;;;-145.69;100.00;70755.75;5094726;28;20205;-77
2022/08/16 01:25:58;;;;;;;6.55;4.60;;;;;;;-145.69;100.00;70763.69;5097045;28;20235;-75
2022/08/16 01:28:26;;;;;;;6.25;4.53;;;;;;;-145.69;100.00;70775.63;5108759;28;20556;-75
2022/08/16 01:30:56;;;;;;;9.73;5.18;;;;;;;-145.69;100.00;70803.50;5117159;28;20201;-75
2022/08/16 01:33:24;;;;;;;6.65;4.78;;;;;;;-145.69;100.00;70809.47;5117086;27;20208;-76
2022/08/16 01:35:53;;;;;;;8.48;5.15;;;;;;;-145.69;100.00;70813.44;5116801;28;20336;-76
2022/08/16 01:38:25;;;;;;;7.73;5.63;;;;;;;-145.69;100.00;70817.41;5116803;28;20858;-75
2022/08/16 01:40:55;;;;;;;9.68;5.25;;;;;;;-145.69;100.00;70817.41;5099891;28;20194;-76
2022/08/16 01:43:23;;;;;;;13.83;4.87;;;;;;;-145.69;100.00;70817.41;5096517;28;20206;-76
2022/08/16 01:45:53;;;;;;;6.60;5.50;;;;;;;-145.69;100.00;70807.47;5096203;28;20660;-75
2022/08/16 01:48:20;;;;;;;7.75;6.20;;;;;;;-145.69;100.00;70809.47;5096247;28;20673;-76
2022/08/16 01:50:48;;;;;;;12.15;5.93;;;;;;;-145.69;100.00;70803.50;5110230;28;20198;-76
2022/08/16 01:53:15;;;;;;;10.25;6.07;;;;;;;-145.69;100.00;70777.63;5116809;28;20197;-76
2022/08/16 01:55:44;;;;;;;11.23;5.68;;;;;;;-145.69;100.00;70765.69;5116703;28;20205;-76
2022/08/16 01:58:10;;;;;;;8.15;5.35;;;;;;;-145.69;100.00;70759.72;5116481;28;20268;-76
2022/08/16 02:00:38;;;;;;;8.35;5.22;;;;;;;-145.69;100.00;70751.75;5116559;28;20209;-75
2022/08/16 02:03:05;;;;;;;8.27;5.60;;;;;;;-145.69;100.00;70741.81;5100838;28;20289;-75
2022/08/16 02:05:31;;;;;;;8.50;5.28;;;;;;;-145.69;100.00;70727.88;5079581;28;20308;-76
2022/08/16 02:07:58;;;;;;;7.13;5.18;;;;;;;-145.69;100.00;70698.03;5075666;28;20260;-76
2022/08/16 02:10:25;;;;;;;6.32;4.38;;;;;;;-145.69;100.00;70682.13;5075223;28;20202;-77
2022/08/16 02:12:52;;;;;;;6.85;4.47;;;;;;;-145.69;100.00;70686.09;5075519;28;20665;-75
2022/08/16 02:15:23;;;;;;;9.98;5.20;;;;;;;-145.69;100.00;70678.16;5109653;28;20591;-76
2022/08/16 02:17:50;;;;;;;7.43;4.85;;;;;;;-145.69;100.00;70686.09;5116483;28;20209;-77
2022/08/16 02:20:17;;;;;;;8.10;4.80;;;;;;;-145.69;100.00;70684.13;5116236;28;20193;-75
2022/08/16 02:22:44;;;;;;;10.88;4.65;;;;;;;-145.69;100.00;70692.06;5099376;27;20288;-76
2022/08/16 02:25:14;;;;;;;12.38;4.28;;;;;;;-145.69;100.00;70708.00;5095619;28;20205;-75
2022/08/16 02:27:42;;;;;;;9.52;5.40;;;;;;;-145.69;100.00;70690.09;5095701;28;20206;-76
2022/08/16 02:30:13;;;;;;;7.18;4.57;;;;;;;-145.69;100.00;70664.22;5095452;28;20208;-75
2022/08/16 02:32:39;;;;;;;9.32;4.70;;;;;;;-145.69;100.00;70680.13;5095680;28;20226;-75
2022/08/16 02:35:08;;;;;;;6.85;4.32;;;;;;;-145.69;100.00;70680.13;5096641;28;20194;-76
2022/08/16 02:37:34;;;;;;;7.57;4.72;;;;;;;-145.69;100.00;70670.19;5095556;28;20217;-77
2022/08/16 02:40:01;;;;;;;8.20;4.90;;;;;;;-145.69;100.00;70674.16;5095246;28;20738;-75
2022/08/16 02:42:27;;;;;;;11.90;5.47;;;;;;;-145.69;100.00;70674.16;5095223;28;20202;-75
2022/08/16 02:44:54;;;;;;;10.38;4.90;;;;;;;-145.69;100.00;70678.16;5095162;28;20545;-75
2022/08/16 02:47:20;;;;;;;8.65;4.22;;;;;;;-145.69;100.00;70688.09;5114082;28;20193;-75
2022/08/16 02:49:47;;;;;;;6.68;4.30;;;;;;;-145.69;100.00;70690.09;5115715;28;20205;-75
2022/08/16 02:52:15;;;;;;;11.95;4.80;;;;;;;-145.69;100.00;70688.09;5115528;27;20201;-75
2022/08/16 02:54:41;;;;;;;7.10;4.40;;;;;;;-145.69;100.00;70692.06;5115511;28;20201;-75
2022/08/16 02:57:08;;;;;;;9.30;4.82;;;;;;;-145.69;100.00;70690.09;5114003;28;20201;-77
2022/08/16 02:59:34;;;;;;;10.05;4.80;;;;;;;-145.69;100.00;70690.09;5095073;28;20229;-76
2022/08/16 03:02:01;;;;;;;7.63;4.57;;;;;;;-145.69;100.00;70700.03;5095242;28;20209;-75
2022/08/16 03:04:27;;;;;;;12.13;5.28;;;;;;;-145.69;100.00;70706.00;5094761;28;20604;-75
2022/08/16 03:06:54;;;;;;;9.95;5.10;;;;;;;-145.69;100.00;70698.03;5094942;28;20198;-75
2022/08/16 03:09:22;;;;;;;5.47;4.30;;;;;;;-145.69;100.00;70690.09;5098268;28;20686;-76
2022/08/16 03:11:49;;;;;;;7.05;4.72;;;;;;;-145.69;100.00;70708.00;5115078;28;20204;-75
2022/08/16 03:14:15;;;;;;;9.20;5.00;;;;;;;-145.69;100.00;70715.94;5115242;28;20212;-75
2022/08/16 03:16:42;;;;;;;8.27;4.80;;;;;;;-145.69;100.00;70729.88;5115200;28;20205;-77
2022/08/16 03:19:09;;;;;;;8.30;5.03;;;;;;;-145.69;100.00;70735.84;5115137;28;20225;-73
2022/08/16 03:21:36;;;;;;;7.75;4.78;;;;;;;-145.69;100.00;70745.78;5108215;28;20265;-77
2022/08/16 03:24:03;;;;;;;10.93;6.38;;;;;;;-145.69;100.00;70751.75;5093647;28;20672;-75
2022/08/16 03:26:30;;;;;;;11.07;5.30;;;;;;;-145.69;100.00;70751.75;5094408;28;20217;-76
2022/08/16 03:28:57;;;;;;;10.18;5.05;;;;;;;-145.69;100.00;70765.69;5095408;28;20206;-76
2022/08/16 03:31:24;;;;;;;9.35;5.57;;;;;;;-145.69;100.00;70771.66;5114912;28;20202;-76
2022/08/16 03:33:50;;;;;;;9.57;6.25;;;;;;;-145.69;100.00;70771.66;5114841;27;20275;-76
2022/08/16 03:36:17;;;;;;;8.35;5.95;;;;;;;-145.69;100.00;70773.66;5114739;28;20204;-76
2022/08/16 03:38:43;;;;;;;12.95;5.72;;;;;;;-145.69;100.00;70781.59;5114652;28;20580;-76
2022/08/16 03:41:10;;;;;;;13.77;6.05;;;;;;;-145.69;100.00;70781.59;5111449;28;20190;-76
2022/08/16 03:43:38;;;;;;;11.55;6.22;;;;;;;-145.69;100.00;70767.69;5097535;28;20197;-76
2022/08/16 03:46:05;;;;;;;9.82;5.85;;;;;;;-145.69;100.00;70773.66;5114537;28;20201;-75
2022/08/16 03:48:34;;;;;;;12.98;6.28;;;;;;;-145.69;100.00;70779.63;5114491;27;20216;-75
2022/08/16 03:51:02;;;;;;;15.23;6.22;;;;;;;-145.69;100.00;70801.50;5114428;27;20201;-74
2022/08/16 03:53:29;;;;;;;10.23;6.90;;;;;;;-145.69;100.00;70785.59;5114387;28;20201;-74
2022/08/16 03:55:55;;;;;;;11.30;6.60;;;;;;;-145.69;100.00;70783.59;5107881;28;20190;-75
2022/08/16 03:58:22;;;;;;;9.52;6.25;;;;;;;-145.69;100.00;70793.53;5093591;28;20691;-75
2022/08/16 04:00:50;;;;;;;13.43;6.30;;;;;;;-145.69;100.00;70797.53;5093817;28;20206;-75
2022/08/16 04:03:17;;;;;;;14.98;7.18;;;;;;;-145.69;100.00;70797.53;5093745;28;20530;-75
2022/08/16 04:05:46;;;;;;;17.52;6.72;;;;;;;-145.69;100.00;70807.47;5093496;28;20233;-75
2022/08/16 04:08:13;;;;;;;10.73;6.80;;;;;;;-145.69;100.00;70809.47;5102873;28;20517;-75
2022/08/16 04:10:40;;;;;;;13.20;7.60;;;;;;;-145.69;100.00;70803.50;5112623;28;20206;-75
2022/08/16 04:13:07;;;;;;;18.60;7.75;;;;;;;-145.69;100.00;70817.41;5073440;28;20201;-74
2022/08/16 04:15:34;;;;;;;12.60;7.28;;;;;;;-145.69;100.00;70825.38;5073413;28;20211;-75
2022/08/16 04:18:01;;;;;;;16.10;7.75;;;;;;;-145.69;100.00;70825.38;5073304;28;20199;-74
2022/08/16 04:20:29;;;;;;;14.20;7.23;;;;;;;-145.69;100.00;70825.38;5098573;28;20221;-74
2022/08/16 04:22:56;;;;;;;16.13;7.47;;;;;;;-145.69;100.00;70833.34;5113989;28;20250;-75
2022/08/16 04:25:24;;;;;;;11.40;7.17;;;;;;;-145.69;100.00;70839.31;5113835;28;20204;-76
2022/08/16 04:27:51;;;;;;;14.77;7.57;;;;;;;-145.69;100.00;70847.25;5113828;28;20201;-75
2022/08/16 04:30:20;;;;;;;15.57;7.93;;;;;;;-145.69;100.00;70839.31;5113778;28;20232;-75
2022/08/16 04:32:48;;;;;;;15.13;8.20;;;;;;;-145.69;100.00;70841.28;5097251;28;20280;-75
2022/08/16 04:35:19;;;;;;;12.17;7.83;;;;;;;-145.69;100.00;70835.31;5093160;28;20251;-75
2022/08/16 04:37:46;;;;;;;13.17;7.50;;;;;;;-145.69;100.00;70835.31;5093239;28;20206;-75
2022/08/16 04:40:14;;;;;;;11.53;7.50;;;;;;;-145.69;100.00;70827.38;5093052;28;20233;-75
2022/08/16 04:42:42;;;;;;;15.20;7.53;;;;;;;-145.69;100.00;70833.34;5093269;28;20225;-75
2022/08/16 04:45:12;;;;;;;15.33;7.97;;;;;;;-145.69;100.00;70843.28;5112700;28;20201;-74
2022/08/16 04:47:40;;;;;;;15.07;8.43;;;;;;;-145.69;100.00;70843.28;5113664;28;20674;-75
2022/08/16 04:50:10;;;;;;;13.10;8.33;;;;;;;-145.69;100.00;70831.34;5113594;28;20209;-74
2022/08/16 04:52:39;;;;;;;12.27;8.90;;;;;;;-145.69;100.00;70833.34;5112433;28;20438;-74
2022/08/16 04:55:08;;;;;;;10.48;7.65;;;;;;;-145.69;100.00;70837.31;5109230;28;20221;-75
2022/08/16 04:57:35;;;;;;;12.68;7.45;;;;;;;-145.69;100.00;70841.28;5093028;28;20202;-75
2022/08/16 05:00:04;;;;;;;12.82;8.07;;;;;;;-145.69;100.00;70843.28;5093115;28;20222;-75
2022/08/16 05:02:30;;;;;;;11.33;8.73;;;;;;;-145.69;100.00;70827.38;5092125;28;20911;-75
2022/08/16 05:04:57;;;;;;;13.30;8.35;;;;;;;-145.69;100.00;70825.38;5092795;28;20294;-75
2022/08/16 05:07:23;;;;;;;11.52;7.30;;;;;;;-145.69;100.00;70829.34;5098647;28;20541;-75
2022/08/16 05:09:51;;;;;;;14.63;7.13;;;;;;;-145.69;100.00;70817.41;5113337;28;20208;-74
2022/08/16 05:12:17;;;;;;;12.60;6.80;;;;;;;-145.69;100.00;70819.41;5113439;28;20208;-74
2022/08/16 05:14:44;;;;;;;11.18;7.43;;;;;;;-145.69;100.00;70809.47;5113118;28;20211;-76
2022/08/16 05:17:10;;;;;;;14.80;7.22;;;;;;;-145.69;100.00;70805.47;5113468;28;20224;-75
2022/08/16 05:19:37;;;;;;;11.10;7.38;;;;;;;-145.69;100.00;70801.50;5104823;28;20217;-75
2022/08/16 05:22:03;;;;;;;13.85;7.25;;;;;;;-145.69;100.00;70793.53;5092922;28;20572;-75
2022/08/16 05:24:30;;;;;;;13.82;7.75;;;;;;;-145.69;100.00;70787.56;5092801;28;20205;-75
2022/08/16 05:26:58;;;;;;;13.30;7.15;;;;;;;-145.69;100.00;70783.59;5092917;28;20577;-76
2022/08/16 05:29:24;;;;;;;10.07;6.93;;;;;;;-145.69;100.00;70765.69;5092668;28;20210;-75
2022/08/16 05:31:50;;;;;;;11.27;7.05;;;;;;;-145.69;100.00;70765.69;5103406;28;20205;-77
2022/08/16 05:34:20;;;;;;;9.32;6.63;;;;;;;-145.69;100.00;70753.75;5113173;28;20197;-75
2022/08/16 05:36:48;;;;;;;12.13;6.68;;;;;;;-145.69;100.00;70745.78;5113233;28;20202;-75
2022/08/16 05:39:15;;;;;;;8.63;6.40;;;;;;;-145.69;100.00;70737.84;5113064;28;20225;-75
2022/08/16 05:41:41;;;;;;;11.82;6.13;;;;;;;-145.69;100.00;70741.81;5112675;28;20197;-75
2022/08/16 05:44:09;;;;;;;8.15;5.57;;;;;;;-145.69;100.00;70727.88;5098815;28;20198;-75
2022/08/16 05:46:35;;;;;;;11.00;6.43;;;;;;;-145.69;100.00;70735.84;5094766;28;20289;-75
2022/08/16 05:49:02;;;;;;;12.18;6.22;;;;;;;-145.69;100.00;70721.91;5096465;28;20198;-74
2022/08/16 05:51:29;;;;;;;9.07;6.18;;;;;;;-145.69;100.00;70708.00;5096492;28;20564;-76
2022/08/16 05:53:55;;;;;;;11.93;5.68;;;;;;;-145.69;100.00;70694.06;5096577;28;20206;-75
2022/08/16 05:56:21;;;;;;;12.93;6.07;;;;;;;-145.69;100.00;70682.13;5112798;28;20199;-75
2022/08/16 05:58:48;;;;;;;11.40;6.07;;;;;;;-145.69;100.00;70676.16;5116541;28;20659;-76
2022/08/16 06:01:16;;;;;;;9.70;5.68;;;;;;;-145.69;100.00;70668.19;5116740;27;20229;-76
2022/08/16 06:03:42;;;;;;;7.22;5.65;;;;;;;-145.69;100.00;70658.25;5116718;28;20208;-76
2022/08/16 06:06:09;;;;;;;9.32;5.88;;;;;;;-145.69;100.00;70648.31;5116257;28;20236;-75
2022/08/16 06:08:35;;;;;;;9.48;5.43;;;;;;;-145.69;100.00;70634.38;5094810;27;20190;-75
2022/08/16 06:11:02;;;;;;;7.85;5.30;;;;;;;-145.69;100.00;70620.44;5111967;28;20656;-75
2022/08/16 06:13:28;;;;;;;8.50;5.40;;;;;;;-145.69;100.00;70610.50;5116451;28;20198;-75
2022/08/16 06:15:55;;;;;;;8.45;4.97;;;;;;;-145.69;100.00;70602.56;5115169;28;20431;-75
2022/08/16 06:18:23;;;;;;;7.50;4.82;;;;;;;-145.69;100.00;70600.56;5116371;28;20215;-76
2022/08/16 06:20:50;;;;;;;9.20;4.78;;;;;;;-145.69;100.00;70574.69;5116329;28;20584;-76
2022/08/16 06:23:17;;;;;;;7.70;4.43;;;;;;;-145.69;100.00;70558.78;5095985;28;20202;-75
2022/08/16 06:25:43;;;;;;;9.00;4.80;;;;;;;-145.69;100.00;70542.88;5095915;28;20206;-76
2022/08/16 06:28:12;;;;;;;10.15;4.85;;;;;;;-145.69;100.00;70530.94;5095815;28;20560;-75
2022/08/16 06:30:39;;;;;;;7.32;4.18;;;;;;;-145.69;100.00;70501.09;5095775;28;20209;-75
2022/08/16 06:33:05;;;;;;;8.18;4.85;;;;;;;-145.69;100.00;70485.16;5095558;28;20209;-75
2022/08/16 06:35:33;;;;;;;7.10;4.60;;;;;;;-145.69;100.00;70461.31;5099636;28;20197;-76
2022/08/16 06:37:59;;;;;;;8.35;4.18;;;;;;;-145.69;100.00;70447.38;5115675;28;20201;-75
2022/08/16 06:40:26;;;;;;;6.38;3.80;;;;;;;-145.69;100.00;70417.53;5115898;27;20232;-76
2022/08/16 06:42:52;;;;;;;5.70;3.85;;;;;;;-145.69;100.00;70385.69;5115853;28;20224;-75
2022/08/16 06:45:19;;;;;;;5.85;4.25;;;;;;;-145.69;100.00;70361.84;5115903;28;20199;-75
2022/08/16 06:47:46;;;;;;;8.55;3.45;;;;;;;-145.69;100.00;70345.91;5115717;28;20216;-75
2022/08/16 06:50:12;;;;;;;5.65;4.00;;;;;;;-145.69;100.00;70320.06;5105767;28;20221;-75
2022/08/16 06:52:41;;;;;;;5.63;3.90;;;;;;;-145.69;98.55;70288.22;5095163;28;20198;-75
2022/08/16 06:55:10;;;;;;;5.57;3.85;;;;;;;-145.69;95.73;70266.34;5095207;28;20206;-76
2022/08/16 06:57:37;;;;;;;5.45;3.60;;;;;;;-145.69;96.62;70246.44;5093601;28;20194;-74
2022/08/16 07:00:10;;;;;;;7.30;4.35;;;;;;;-145.69;95.35;70220.59;5094895;28;20230;-74
2022/08/16 07:02:36;;;;;;;11.18;3.95;;;;;;;-145.69;88.92;70224.56;5094925;28;20202;-75
2022/08/16 07:05:05;;;;;;;9.00;4.20;;;;;;;-145.69;88.25;70216.63;5112136;28;20226;-76
2022/08/16 07:07:31;;;;;;;5.85;3.55;;;;;;;-145.69;89.87;70192.75;5115149;28;20307;-75
2022/08/16 07:09:59;;;;;;;9.65;4.28;;;;;;;-145.69;90.73;70174.84;5115354;28;20204;-76
2022/08/16 07:12:26;;;;;;;9.38;3.75;;;;;;;-145.69;86.48;70172.84;5115429;28;20232;-76
2022/08/16 07:14:52;;;;;;;8.48;4.00;;;;;;;-145.69;83.40;70164.88;5115263;28;20198;-75
2022/08/16 07:17:20;;;;;;;8.15;4.07;;;;;;;-145.69;83.17;70172.84;5109299;28;20190;-75
2022/08/16 07:19:46;;;;;;;5.57;3.40;;;;;;;-145.69;83.26;70145.00;5094474;28;20592;-75
2022/08/16 07:22:13;;;;;;;7.07;3.47;;;;;;;-145.69;82.58;70148.97;5094562;28;20652;-74
2022/08/16 07:24:40;;;;;;;9.93;3.78;;;;;;;-145.69;82.13;70145.00;5094605;28;20201;-74
2022/08/16 07:27:07;;;;;;;6.18;3.72;;;;;;;-145.69;85.43;70127.09;5094631;28;20250;-74
2022/08/16 07:29:34;;;;;;;9.40;3.80;;;;;;;-145.69;82.62;70121.13;5094432;28;20202;-75
2022/08/16 07:32:00;;;;;;;5.97;3.92;;;;;;;-145.69;81.33;70148.97;5104664;28;20210;-75
2022/08/16 07:34:27;;;;;;;5.63;3.45;;;;;;;-145.69;81.21;70123.13;5114740;28;20582;-74
2022/08/16 07:36:53;;;;;;;6.15;3.70;;;;;;;-145.69;81.94;70113.16;5114889;28;20769;-76
2022/08/16 07:39:20;;;;;;;6.53;3.90;;;;;;;-145.69;81.07;70109.19;5114832;28;20201;-76
2022/08/16 07:41:46;;;;;;;9.90;3.67;;;;;;;-145.69;81.37;70085.31;5114806;27;20235;-74
2022/08/16 07:44:14;;;;;;;8.55;3.92;;;;;;;-145.69;78.85;70031.63;5114568;28;20201;-76
2022/08/16 07:46:40;;;;;;;9.65;4.50;;;;;;;-145.69;75.72;70027.63;5096477;28;20194;-76
2022/08/16 07:49:07;;;;;;;13.27;3.83;;;;;;;-145.69;77.20;70005.75;5094298;28;20202;-75
2022/08/16 07:51:35;;;;;;;7.88;4.57;;;;;;;-145.69;72.09;70057.47;5094206;28;20201;-75
2022/08/16 07:54:02;;;;;;;11.00;4.63;;;;;;;-145.69;75.60;70085.31;5093885;28;20198;-75
2022/08/16 07:56:29;;;;;;;12.88;4.75;;;;;;;-145.69;77.99;70097.25;5093991;28;20200;-77
2022/08/16 07:58:56;;;;;;;6.57;4.15;;;;;;;-145.69;72.68;70105.22;5095956;28;20678;-77
2022/08/16 08:01:24;;;;;;;10.82;4.25;;;;;;;-145.69;75.88;70105.22;5114117;28;20625;-76
2022/08/16 08:03:52;;;;;;;10.23;4.15;;;;;;;-145.69;76.55;70097.25;5113767;28;20438;-76
2022/08/16 08:06:19;;;;;;;9.27;4.22;;;;;;;-145.69;73.89;70085.31;5097929;28;20262;-77
2022/08/16 08:08:46;;;;;;;7.47;4.18;;;;;;;-145.69;73.48;70083.34;5093495;28;20205;-76
2022/08/16 08:11:13;;;;;;;6.30;3.55;;;;;;;-145.69;73.22;70071.41;5093799;28;20237;-75
2022/08/16 08:13:39;;;;;;;8.88;4.60;;;;;;;-145.69;72.76;70053.50;5093594;28;20206;-76
2022/08/16 08:16:08;;;;;;;7.95;3.72;;;;;;;-145.69;71.86;70049.50;5093538;28;20198;-77
2022/08/16 08:18:36;;;;;;;8.60;4.05;;;;;;;-145.69;70.43;70013.72;5095462;28;20203;-77
2022/08/16 08:21:03;;;;;;;11.63;4.80;;;;;;;-145.69;69.29;70035.59;5073270;28;20223;-76
2022/08/16 08:23:29;;;;;;;12.23;4.22;;;;;;;-145.69;72.13;70017.69;5073386;28;20199;-76
2022/08/16 08:25:55;;;;;;;5.85;4.22;;;;;;;-145.69;72.11;69987.84;5072309;28;20349;-76
2022/08/16 08:28:22;;;;;;;7.43;3.30;;;;;;;-145.69;66.64;69952.03;5070980;28;20679;-77
2022/08/16 08:30:48;;;;;;;7.13;3.63;;;;;;;-145.69;64.98;69950.06;5080783;28;20224;-78
2022/08/16 08:33:15;;;;;;;5.97;3.50;;;;;;;-145.69;65.68;69936.13;5111763;28;20193;-77
2022/08/16 08:35:43;;;;;;;6.15;3.88;;;;;;;-145.69;63.36;69938.13;5111687;28;20197;-77
2022/08/16 08:38:09;;;;;;;5.53;3.00;;;;;;;-145.69;64.32;69906.28;5111585;28;20850;-76
2022/08/16 08:40:36;;;;;;;6.63;3.40;;;;;;;-145.69;63.03;69940.13;5112057;28;20263;-76
2022/08/16 08:43:03;;;;;;;5.55;3.55;;;;;;;-145.69;64.21;69904.31;5113496;28;20204;-76
2022/08/16 08:45:30;;;;;;;10.13;3.95;;;;;;;-145.69;63.30;69892.38;5102366;28;20201;-76
2022/08/16 08:47:56;;;;;;;6.43;3.72;;;;;;;-145.69;63.39;69910.28;5093066;28;20201;-75
2022/08/16 08:50:24;;;;;;;7.13;3.90;;;;;;;-145.69;64.04;69932.16;5093133;28;20201;-76
2022/08/16 08:52:52;;;;;;;8.95;3.63;;;;;;;-145.69;62.52;69914.25;5093366;28;20204;-78
2022/08/16 08:55:21;;;;;;;7.18;3.35;;;;;;;-145.69;63.17;69920.22;5092943;28;20202;-77
2022/08/16 08:57:50;;;;;;;11.77;4.10;;;;;;;-145.69;61.41;69882.44;5093196;28;20233;-76
2022/08/16 09:00:21;;;;;;;10.02;3.30;;;;;;;-145.69;57.79;69884.41;5108642;28;20232;-76
2022/08/16 09:02:49;;;;;;;8.10;3.38;;;;;;;-145.69;58.59;69844.63;5113440;28;20197;-75
2022/08/16 09:05:18;;;;;;;4.72;2.90;;;;;;;-145.69;53.73;69775.00;5113287;28;20233;-75
2022/08/16 09:07:45;;;;;;;6.30;2.88;;;;;;;-145.69;54.39;69755.13;5113403;28;20209;-75
2022/08/16 09:10:14;;;;;;;7.38;3.15;;;;;;;-145.69;55.37;69775.00;5113270;28;20205;-75
2022/08/16 09:12:42;;;;;;;6.43;2.80;;;;;;;-145.69;56.93;69846.63;5107290;28;20213;-75
2022/08/16 09:15:10;;;;;;;9.68;3.30;;;;;;;-145.69;56.91;69884.41;5092975;28;20205;-76
2022/08/16 09:17:37;;;;;;;4.55;2.95;;;;;;;-145.69;57.90;69846.63;5092958;28;20217;-77
2022/08/16 09:20:06;;;;;;;6.43;3.10;;;;;;;-145.69;55.88;69862.53;5093331;28;20229;-77
2022/08/16 09:22:32;;;;;;;4.30;2.65;;;;;;;-145.69;56.66;69872.47;5096370;28;20194;-76
2022/08/16 09:24:59;;;;;;;5.10;3.40;;;;;;;-145.69;54.96;69904.31;5097174;28;20232;-76
2022/08/16 09:27:27;;;;;;;8.57;2.75;;;;;;;-145.69;58.05;69874.47;5109841;28;20219;-76
2022/08/16 09:29:54;;;;;;;6.03;3.03;;;;;;;-145.69;54.15;69808.84;5117304;28;20563;-76
2022/08/16 09:32:21;;;;;;;5.72;3.08;;;;;;;-145.69;55.79;69767.06;5117168;28;20355;-75
2022/08/16 09:34:47;;;;;;;5.60;3.03;;;;;;;-145.69;56.45;69749.16;5117061;28;20575;-75
2022/08/16 09:37:14;;;;;;;4.95;3.13;;;;;;;-145.69;55.46;69691.47;5116893;28;20586;-76
2022/08/16 09:39:41;;;;;;;7.15;2.50;;;;;;;-145.69;54.51;69667.59;5117220;28;20537;-76
2022/08/16 09:42:07;;;;;;;7.68;2.80;;;;;;;-145.69;51.64;69717.34;5098431;27;20232;-76
2022/08/16 09:44:35;;;;;;;5.75;2.55;;;;;;;-145.69;54.12;69713.34;5096606;28;20202;-75
2022/08/16 09:47:02;;;;;;;6.07;2.90;;;;;;;-145.69;49.98;69707.38;5096387;28;20234;-76
2022/08/16 09:49:29;;;;;;;4.75;2.60;;;;;;;-145.69;50.13;69703.41;5096404;28;20208;-76
2022/08/16 09:51:55;;;;;;;5.50;3.10;;;;;;;-145.69;52.11;69741.19;5096823;28;20580;-76
2022/08/16 09:54:24;;;;;;;9.40;2.85;;;;;;;-145.69;52.49;69663.63;5099203;28;20208;-75
2022/08/16 09:56:53;;;;;;;6.57;2.90;;;;;;;-145.69;49.37;69647.72;5116624;28;20589;-76
2022/08/16 09:59:21;;;;;;;5.30;2.80;;;;;;;-145.69;53.00;69637.78;5116718;27;20197;-76
2022/08/16 10:01:50;;;;;;;6.55;2.60;;;;;;;-145.69;49.86;69659.66;5116750;28;20233;-76
2022/08/16 10:04:18;;;;;;;8.30;2.95;;;;;;;-145.69;52.31;69639.75;5114557;28;20233;-76
2022/08/16 10:06:44;;;;;;;6.40;3.10;;;;;;;-145.69;50.28;69721.31;5116368;28;20205;-76
2022/08/16 10:09:13;;;;;;;6.72;3.10;;;;;;;-145.69;51.87;69723.31;5108116;28;20198;-75
2022/08/16 10:14:29;;;;;;;7.47;3.50;;;;;;;-145.69;50.38;69655.69;5095946;28;20564;-76
2022/08/16 10:16:58;;;;;;;4.18;2.65;;;;;;;-145.69;47.38;69631.81;5095842;28;20616;-76
2022/08/16 10:19:25;;;;;;;9.50;3.00;;;;;;;-145.69;47.85;69538.31;5096033;28;20201;-76
2022/08/16 10:21:52;;;;;;;7.35;3.10;;;;;;;-145.69;46.57;69560.22;5095798;28;20226;-76
2022/08/16 10:24:19;;;;;;;6.38;2.92;;;;;;;-145.69;49.21;69552.25;5104194;28;20607;-75
2022/08/16 10:26:45;;;;;;;3.63;2.95;;;;;;;-145.69;45.14;69528.38;5075352;28;20673;-76
2022/08/16 10:29:16;;;;;;;5.22;2.75;;;;;;;-145.69;45.00;69512.47;5087952;28;20202;-75
2022/08/16 10:31:42;;;;;;;6.63;2.80;;;;;;;-145.69;44.08;69623.84;5095210;28;20224;-76
2022/08/16 10:34:10;;;;;;;7.00;3.10;;;;;;;-145.69;46.76;69635.78;5095629;28;20202;-76
2022/08/16 10:36:36;;;;;;;5.20;2.42;;;;;;;-145.69;46.83;69629.81;5099248;28;20202;-76
2022/08/16 10:39:04;;;;;;;4.60;2.58;;;;;;;-145.69;48.29;69649.72;5095564;28;20224;-76
2022/08/16 10:41:31;;;;;;;5.95;2.70;;;;;;;-145.69;48.64;69629.81;5095185;28;20557;-76
2022/08/16 10:44:00;;;;;;;6.72;2.50;;;;;;;-145.69;47.28;69592.03;5095256;28;20224;-76
2022/08/16 10:46:27;;;;;;;5.85;2.70;;;;;;;-145.69;46.37;69566.16;5095358;28;20194;-76
2022/08/16 10:48:53;;;;;;;4.35;2.67;;;;;;;-145.69;47.88;69502.53;5095194;28;20199;-76
2022/08/16 10:51:21;;;;;;;6.00;2.58;;;;;;;-145.69;45.20;69524.41;5095191;28;20209;-75
2022/08/16 10:53:48;;;;;;;4.07;2.20;;;;;;;-145.69;46.43;69504.50;5095190;28;20206;-76
2022/08/16 10:56:15;;;;;;;7.93;2.50;;;;;;;-145.69;44.97;69464.75;5114298;28;20200;-76
2022/08/16 10:58:41;;;;;;;5.03;2.25;;;;;;;-145.69;47.15;69448.81;5113879;28;20205;-75
2022/08/16 11:01:10;;;;;;;6.00;2.42;;;;;;;-145.69;43.56;69452.81;5094800;28;20222;-78
2022/08/16 11:03:37;;;;;;;6.05;2.63;;;;;;;-145.69;44.29;69456.78;5095111;28;20206;-75
2022/08/16 11:06:06;;;;;;;4.97;3.03;;;;;;;-145.69;45.99;69480.66;5094687;28;20233;-76
2022/08/16 11:08:35;;;;;;;6.55;2.67;;;;;;;-145.69;43.86;69468.72;5094746;28;20336;-76
2022/08/16 11:11:02;;;;;;;4.75;2.63;;;;;;;-145.69;47.63;69444.84;5094625;28;20206;-77
2022/08/16 11:13:28;;;;;;;6.82;2.70;;;;;;;-145.69;42.64;69448.81;5099085;28;20191;-75
2022/08/16 11:15:56;;;;;;;4.43;2.20;;;;;;;-145.69;43.91;69458.78;5115042;28;20198;-75